Scituate Harbor, Massachusetts
Current Conditions -  °F | °C
As of 2:54 AM on Tuesday 21 Oct 2014 (Local Time) from KBOS Reporting Station
Clear Clear  
Wind Chill: 50°   Ceiling: Unl
Heat Index: 50°   Visibility: 10mi
Dew Point: 44°   Wind: 3mph
Humidity: 80%   Direction: 170°S
Pressure: 29.99"   Gusts: NA
Location:  42.201°N, 70.7631°W
Report Text: KBOS 210654Z 17003KT 10SM CLR 10/07 A2999 RMK AO2 SLP156 T01000067
Loading
Personal Weather Stations






























Interactive Weather Map
Tropical Storm Tracking
New forecast layout! Learn more

10-Day Weather Forecast

Advertisements
Track Severe Weather on mobile